Time;durP1;ratioP1;P1;durP2;ratioP2;P2;SDS_P1;SDS_P2;PMS_P1;PMS_P2;Temp;Humidity;BMP_temperature;BMP_pressure;BME280_temperature;BME280_humidity;BME280_pressure;Samples;Min_cycle;Max_cycle;Signal;HPM_P1;HPM_P2
2021/04/05 00:01:47;;;;;;;28.55;18.35;;;6.50;99.90;;;;;;5120083;27;20042;-74
2021/04/05 00:04:13;;;;;;;29.25;14.73;;;6.50;99.90;;;;;;5134831;27;20049;-75
2021/04/05 00:06:39;;;;;;;26.05;13.90;;;6.50;99.90;;;;;;5095238;28;20043;-76
2021/04/05 00:09:06;;;;;;;27.90;14.18;;;6.60;99.90;;;;;;5108153;28;20076;-75
2021/04/05 00:11:32;;;;;;;23.05;15.52;;;6.50;99.90;;;;;;5112226;28;20118;-76
2021/04/05 00:13:58;;;;;;;27.73;13.63;;;6.50;99.90;;;;;;5135156;27;20387;-76
2021/04/05 00:16:23;;;;;;;32.20;13.43;;;6.70;99.90;;;;;;5130922;27;20039;-77
2021/04/05 00:18:50;;;;;;;26.73;13.65;;;6.60;99.90;;;;;;5144643;27;20060;-74
2021/04/05 00:21:22;;;;;;;30.05;12.77;;;6.70;99.90;;;;;;5130778;28;20417;-76
2021/04/05 00:23:52;;;;;;;28.70;14.20;;;6.70;99.90;;;;;;5123114;28;20069;-75
2021/04/05 00:26:19;;;;;;;33.05;15.48;;;6.70;99.90;;;;;;5130982;28;20071;-76
2021/04/05 00:28:45;;;;;;;28.88;14.13;;;6.70;99.90;;;;;;5130218;28;20038;-76
2021/04/05 00:31:10;;;;;;;;;;;6.70;99.90;;;;;;5130777;28;20051;-75
2021/04/05 00:33:36;;;;;;;28.02;15.13;;;6.70;99.90;;;;;;5138372;27;20312;-76
2021/04/05 00:36:03;;;;;;;30.63;14.25;;;6.80;99.90;;;;;;5127786;28;20035;-76
2021/04/05 00:38:29;;;;;;;32.53;14.02;;;6.80;99.90;;;;;;5136802;27;20122;-76
2021/04/05 00:41:06;;;;;;;32.47;14.93;;;6.80;99.90;;;;;;5115216;28;20044;-76
2021/04/05 00:43:34;;;;;;;30.65;14.00;;;6.90;99.90;;;;;;5136146;27;20456;-76
2021/04/05 00:46:00;;;;;;;31.42;15.05;;;7.00;99.90;;;;;;5129102;28;20089;-76
2021/04/05 00:48:26;;;;;;;31.38;12.25;;;7.00;99.90;;;;;;5120433;28;20110;-76
2021/04/05 00:51:10;;;;;;;25.33;13.88;;;7.20;99.90;;;;;;5130334;28;20502;-76
2021/04/05 00:53:39;;;;;;;26.85;13.80;;;7.10;99.90;;;;;;5131341;27;20046;-77
2021/04/05 00:56:07;;;;;;;30.30;13.55;;;7.20;99.90;;;;;;5129941;28;20039;-77
2021/04/05 00:58:33;;;;;;;30.00;13.95;;;7.30;99.90;;;;;;5131243;27;20063;-75
2021/04/05 01:01:01;;;;;;;;;;;7.40;99.90;;;;;;5141794;27;20375;-76
2021/04/05 01:03:32;;;;;;;21.80;11.13;;;7.30;99.90;;;;;;5138357;27;19981;-77
2021/04/05 01:06:13;;;;;;;26.17;13.68;;;7.40;99.90;;;;;;5108623;28;20084;-76
2021/04/05 01:08:40;;;;;;;28.33;13.63;;;7.40;99.90;;;;;;5135310;27;20491;-75
2021/04/05 01:11:08;;;;;;;25.95;15.52;;;7.50;99.90;;;;;;5122256;27;20039;-75
2021/04/05 01:13:34;;;;;;;25.13;12.90;;;7.60;99.90;;;;;;5133503;27;20057;-75
2021/04/05 01:16:00;;;;;;;28.65;12.55;;;7.70;99.90;;;;;;5114469;27;20031;-74
2021/04/05 01:18:28;;;;;;;;;;;7.80;99.90;;;;;;5134121;27;20034;-77
2021/04/05 01:20:55;;;;;;;24.63;14.27;;;7.80;99.90;;;;;;5131148;27;20002;-77
2021/04/05 01:23:22;;;;;;;25.45;11.85;;;7.80;99.90;;;;;;5128850;27;20054;-75
2021/04/05 01:25:47;;;;;;;;;;;7.80;99.90;;;;;;5129654;27;20065;-74
2021/04/05 01:28:14;;;;;;;21.88;10.80;;;7.90;99.90;;;;;;5139162;27;19919;-76
2021/04/05 01:30:41;;;;;;;;;;;7.80;99.90;;;;;;5120490;27;20079;-77
2021/04/05 01:33:33;;;;;;;27.20;11.93;;;7.70;99.90;;;;;;5133241;27;20653;-75
2021/04/05 01:36:03;;;;;;;20.70;11.77;;;7.80;99.90;;;;;;5133009;27;20473;-75
2021/04/05 01:38:33;;;;;;;21.70;11.00;;;7.80;99.90;;;;;;5135615;27;20085;-75
2021/04/05 01:41:06;;;;;;;20.92;10.32;;;7.90;99.90;;;;;;5137054;27;20138;-76
2021/04/05 01:43:32;;;;;;;21.90;11.60;;;7.80;99.90;;;;;;5133480;27;20039;-75
2021/04/05 01:45:59;;;;;;;21.80;13.25;;;7.90;99.90;;;;;;5127956;27;20034;-76
2021/04/05 01:48:27;;;;;;;26.23;11.10;;;7.90;99.90;;;;;;5140591;27;20114;-76
2021/04/05 01:51:17;;;;;;;20.38;10.50;;;8.00;99.90;;;;;;5119904;27;20098;-75
2021/04/05 01:53:47;;;;;;;19.88;11.15;;;7.90;99.90;;;;;;5126898;27;20364;-75
2021/04/05 01:56:16;;;;;;;22.50;11.05;;;7.80;99.90;;;;;;5132857;27;20043;-76
2021/04/05 01:58:44;;;;;;;17.65;10.38;;;7.90;99.90;;;;;;5114612;27;20084;-75
2021/04/05 02:01:12;;;;;;;19.83;9.45;;;7.90;99.90;;;;;;5139530;27;20063;-77
2021/04/05 02:03:39;;;;;;;20.05;9.48;;;8.00;99.90;;;;;;5128080;27;20043;-76
2021/04/05 02:06:09;;;;;;;18.80;10.45;;;7.80;99.90;;;;;;5140373;27;20062;-74
2021/04/05 02:08:37;;;;;;;20.58;9.88;;;8.00;99.90;;;;;;5147574;27;20062;-75
2021/04/05 02:11:08;;;;;;;20.75;10.80;;;7.90;99.90;;;;;;5149003;27;20069;-74
2021/04/05 02:13:34;;;;;;;18.42;9.68;;;7.90;99.90;;;;;;5148888;27;20104;-75
2021/04/05 02:16:01;;;;;;;22.73;10.65;;;7.80;99.90;;;;;;5135389;27;20035;-77
2021/04/05 02:18:28;;;;;;;;;;;7.80;99.90;;;;;;5115601;27;20042;-76
2021/04/05 02:20:54;;;;;;;21.98;10.27;;;7.70;99.90;;;;;;5140129;27;20410;-76
2021/04/05 02:23:20;;;;;;;;;;;7.80;99.90;;;;;;5134816;27;20444;-75
2021/04/05 02:28:52;;;;;;;16.67;8.73;;;7.70;99.90;;;;;;5133580;27;20043;-76
2021/04/05 02:31:21;;;;;;;18.88;9.23;;;7.60;99.90;;;;;;5136222;27;20062;-75
2021/04/05 02:33:49;;;;;;;21.00;8.65;;;7.30;99.90;;;;;;5139629;27;20038;-75
2021/04/05 02:36:18;;;;;;;18.67;8.43;;;7.50;99.90;;;;;;5138770;27;20118;-74
2021/04/05 02:38:53;;;;;;;20.85;8.15;;;7.50;99.90;;;;;;5153634;27;20447;-75
2021/04/05 02:41:20;;;;;;;24.67;9.13;;;7.50;99.90;;;;;;5137935;27;20043;-75
2021/04/05 02:43:47;;;;;;;20.52;9.55;;;7.40;99.90;;;;;;5148782;27;20103;-75
2021/04/05 02:46:16;;;;;;;18.48;8.27;;;7.50;99.90;;;;;;5139085;27;20031;-76
2021/04/05 02:48:47;;;;;;;14.07;7.10;;;7.50;99.90;;;;;;5158249;27;20034;-76
2021/04/05 02:51:14;;;;;;;16.92;9.05;;;7.60;99.90;;;;;;5133302;27;20076;-74
2021/04/05 02:54:00;;;;;;;15.15;9.00;;;7.70;99.90;;;;;;5137460;27;20038;-74
2021/04/05 02:56:28;;;;;;;16.33;9.20;;;7.60;99.90;;;;;;5138572;27;20058;-74
2021/04/05 02:58:56;;;;;;;17.08;9.00;;;7.70;99.90;;;;;;5131058;27;20031;-76
2021/04/05 03:01:25;;;;;;;17.45;8.35;;;7.80;99.90;;;;;;5129461;27;20088;-76
2021/04/05 03:03:56;;;;;;;19.35;8.20;;;7.70;99.90;;;;;;5132143;27;20059;-76
2021/04/05 03:06:23;;;;;;;18.30;9.80;;;7.60;99.90;;;;;;5121093;27;20039;-76
2021/04/05 03:08:50;;;;;;;22.58;8.73;;;7.60;99.90;;;;;;5131397;27;20051;-75
2021/04/05 03:11:18;;;;;;;19.70;8.70;;;7.60;99.90;;;;;;5132649;27;20035;-75
2021/04/05 03:13:44;;;;;;;10.00;4.75;;;7.60;99.90;;;;;;5147430;27;20058;-76
2021/04/05 03:16:14;;;;;;;11.10;3.72;;;7.30;99.90;;;;;;5114561;27;20395;-75
2021/04/05 03:18:41;;;;;;;14.98;4.47;;;6.90;99.90;;;;;;5113625;27;20407;-74
2021/04/05 03:21:08;;;;;;;17.58;4.07;;;6.60;99.90;;;;;;5112602;27;20036;-74
2021/04/05 03:23:35;;;;;;;10.25;3.67;;;6.20;99.90;;;;;;5107841;27;20446;-76
2021/04/05 03:26:01;;;;;;;12.13;4.70;;;6.00;99.90;;;;;;5127741;27;20400;-75
2021/04/05 03:28:27;;;;;;;14.18;4.57;;;6.00;99.90;;;;;;5099901;27;20039;-75
2021/04/05 03:31:04;;;;;;;17.45;4.65;;;5.90;99.90;;;;;;5101886;28;20369;-75
2021/04/05 03:33:59;;;;;;;12.63;4.72;;;5.80;99.90;;;;;;5115366;27;20091;-74
2021/04/05 03:36:35;;;;;;;13.20;4.38;;;5.80;99.90;;;;;;5132034;27;20057;-74
2021/04/05 03:39:02;;;;;;;9.75;3.92;;;5.70;99.90;;;;;;5141183;27;20027;-75
2021/04/05 03:41:39;;;;;;;7.10;3.38;;;5.70;99.90;;;;;;5114794;27;20450;-74
2021/04/05 03:44:30;;;;;;;6.72;2.25;;;5.70;99.90;;;;;;5113032;27;20154;-74
2021/04/05 03:47:02;;;;;;;6.78;2.03;;;5.40;99.90;;;;;;5115346;27;20119;-75
2021/04/05 03:49:46;;;;;;;5.32;2.05;;;5.20;99.90;;;;;;5135894;27;20084;-74
2021/04/05 03:52:31;;;;;;;10.27;2.45;;;5.10;99.90;;;;;;5112023;27;20065;-74
2021/04/05 03:55:05;;;;;;;5.22;2.10;;;5.00;99.90;;;;;;5132011;27;20035;-75
2021/04/05 03:57:37;;;;;;;5.03;2.20;;;5.10;99.90;;;;;;5119660;27;20039;-75
2021/04/05 04:00:15;;;;;;;6.22;2.20;;;5.00;99.90;;;;;;5117638;28;20031;-76
2021/04/05 04:02:52;;;;;;;7.22;2.20;;;4.90;99.90;;;;;;5124311;28;20085;-76
2021/04/05 04:05:35;;;;;;;6.45;2.35;;;4.70;99.90;;;;;;5143966;27;20064;-75
2021/04/05 04:08:17;;;;;;;8.88;1.92;;;4.60;99.90;;;;;;5118622;27;20043;-75
2021/04/05 04:10:49;;;;;;;6.63;2.38;;;4.60;99.90;;;;;;5131560;28;20372;-76
2021/04/05 04:13:17;;;;;;;7.40;2.08;;;4.50;99.90;;;;;;5112521;28;20456;-74
2021/04/05 04:15:47;;;;;;;5.95;2.20;;;4.40;99.90;;;;;;5130742;27;20061;-77
2021/04/05 04:18:14;;;;;;;5.93;1.92;;;4.30;99.90;;;;;;5116619;28;20518;-76
2021/04/05 04:20:40;;;;;;;3.20;1.60;;;4.20;99.90;;;;;;5099654;28;20110;-75
2021/04/05 04:23:06;;;;;;;3.95;1.90;;;4.30;99.90;;;;;;5123078;27;20110;-76
2021/04/05 04:25:32;;;;;;;2.53;1.50;;;4.40;99.90;;;;;;5131303;27;20548;-75
2021/04/05 04:27:58;;;;;;;3.30;2.20;;;4.00;99.90;;;;;;5093790;28;20097;-73
2021/04/05 04:30:34;;;;;;;4.72;1.85;;;3.90;99.90;;;;;;5118320;27;20084;-75
2021/04/05 04:33:04;;;;;;;3.35;1.60;;;3.90;99.90;;;;;;5118258;28;20035;-77
2021/04/05 04:35:31;;;;;;;8.40;2.35;;;3.80;99.90;;;;;;5112650;28;20110;-74
2021/04/05 04:37:59;;;;;;;7.78;2.05;;;3.70;99.90;;;;;;5122657;28;20411;-73
2021/04/05 04:40:26;;;;;;;3.78;1.90;;;3.70;99.90;;;;;;5111819;28;20055;-76
2021/04/05 04:42:56;;;;;;;5.25;1.90;;;3.70;99.90;;;;;;5143692;27;20031;-74
2021/04/05 04:45:23;;;;;;;6.97;2.40;;;4.90;99.90;;;;;;5135184;27;20476;-74
2021/04/05 04:47:55;;;;;;;5.75;2.15;;;3.80;99.90;;;;;;5118008;27;20070;-75
2021/04/05 04:50:22;;;;;;;7.35;2.05;;;3.60;99.90;;;;;;5108320;27;20047;-76
2021/04/05 04:52:48;;;;;;;4.57;2.10;;;3.40;99.90;;;;;;5124118;27;20054;-75
2021/04/05 04:55:17;;;;;;;;;;;3.20;99.90;;;;;;5145545;27;20137;-78
2021/04/05 04:57:44;;;;;;;8.15;2.78;;;3.00;99.90;;;;;;5119157;27;19919;-76
2021/04/05 05:00:11;;;;;;;3.35;1.80;;;3.00;99.90;;;;;;5147437;27;20118;-79
2021/04/05 05:02:41;;;;;;;5.03;1.98;;;3.00;99.90;;;;;;5134422;27;20031;-77
2021/04/05 05:05:13;;;;;;;8.48;2.22;;;3.00;99.90;;;;;;5114963;27;20137;-79
2021/04/05 05:07:40;;;;;;;5.70;2.33;;;2.90;99.90;;;;;;5139372;27;20383;-77
2021/04/05 05:10:10;;;;;;;3.83;1.63;;;2.80;99.90;;;;;;5119657;27;20063;-77
2021/04/05 05:12:38;;;;;;;4.88;1.92;;;2.80;99.90;;;;;;5133205;27;20079;-77
2021/04/05 05:15:12;;;;;;;6.80;1.83;;;2.80;99.90;;;;;;5114928;27;20114;-78
2021/04/05 05:17:43;;;;;;;4.93;2.08;;;2.80;99.90;;;;;;5129845;27;20055;-76
2021/04/05 05:20:10;;;;;;;5.10;1.83;;;2.80;99.90;;;;;;5114925;27;20055;-76
2021/04/05 05:22:39;;;;;;;8.43;1.88;;;2.80;99.90;;;;;;5122807;27;20039;-76
2021/04/05 05:25:06;;;;;;;9.70;2.05;;;2.80;99.90;;;;;;5132666;27;20468;-77
2021/04/05 05:27:39;;;;;;;7.50;2.72;;;2.70;99.90;;;;;;5095334;28;20036;-78
2021/04/05 05:30:08;;;;;;;4.93;2.33;;;2.70;99.90;;;;;;5134512;27;20043;-77
2021/04/05 05:32:35;;;;;;;5.93;2.40;;;2.70;99.90;;;;;;5136513;27;20043;-78
2021/04/05 05:35:02;;;;;;;4.22;1.83;;;2.70;99.90;;;;;;5115719;27;20555;-78
2021/04/05 05:37:28;;;;;;;8.68;2.22;;;2.60;99.90;;;;;;5130933;27;20361;-77
2021/04/05 05:39:54;;;;;;;;;;;2.70;99.90;;;;;;5134612;27;20036;-78
2021/04/05 05:42:32;;;;;;;6.63;2.47;;;3.30;99.90;;;;;;5118488;27;19915;-81
2021/04/05 05:45:08;;;;;;;6.30;2.05;;;2.50;99.90;;;;;;5148224;27;20074;-77
2021/04/05 05:47:37;;;;;;;7.60;2.38;;;2.60;99.90;;;;;;5129208;27;20382;-75
2021/04/05 05:50:05;;;;;;;5.50;2.20;;;2.60;99.90;;;;;;5154332;27;20035;-74
2021/04/05 05:52:53;;;;;;;5.07;2.35;;;2.60;99.90;;;;;;5138342;27;20042;-76
2021/04/05 05:55:47;;;;;;;8.10;3.03;;;2.60;99.90;;;;;;5134049;27;20113;-76
2021/04/05 05:58:40;;;;;;;6.55;2.53;;;2.70;99.90;;;;;;5106652;27;20047;-74
2021/04/05 06:01:38;;;;;;;9.10;3.03;;;2.70;99.90;;;;;;5137750;27;20056;-77
2021/04/05 06:04:27;;;;;;;7.97;2.50;;;2.60;99.90;;;;;;5135792;27;20160;-77
2021/04/05 06:06:59;;;;;;;5.03;2.58;;;2.70;99.90;;;;;;5102174;28;20042;-78
2021/04/05 06:09:49;;;;;;;9.52;2.88;;;2.70;99.90;;;;;;5115779;27;20092;-77
2021/04/05 06:12:42;;;;;;;11.07;2.88;;;2.70;99.90;;;;;;5132403;27;20038;-77
2021/04/05 06:15:28;;;;;;;9.02;3.08;;;2.70;99.90;;;;;;5138371;27;20035;-77
2021/04/05 06:17:59;;;;;;;11.85;3.20;;;2.80;99.90;;;;;;5135389;27;20421;-75
2021/04/05 06:20:51;;;;;;;10.63;3.72;;;2.90;99.90;;;;;;5133018;27;20034;-76
2021/04/05 06:23:29;;;;;;;16.25;3.88;;;3.00;99.90;;;;;;5128105;27;20046;-76
2021/04/05 06:26:13;;;;;;;9.73;3.78;;;3.00;99.90;;;;;;5107873;27;20035;-77
2021/04/05 06:28:49;;;;;;;10.52;3.63;;;3.10;99.90;;;;;;5133600;27;20375;-75
2021/04/05 06:31:49;;;;;;;9.38;3.15;;;3.20;99.90;;;;;;5125089;27;20059;-77
2021/04/05 06:34:34;;;;;;;8.73;3.03;;;3.20;99.90;;;;;;5128926;27;20039;-77
2021/04/05 06:37:05;;;;;;;6.88;2.65;;;3.30;99.90;;;;;;5134611;27;20037;-78
2021/04/05 06:39:33;;;;;;;5.45;2.30;;;3.20;99.90;;;;;;5124337;27;20035;-74
2021/04/05 06:42:18;;;;;;;9.32;3.30;;;3.50;99.90;;;;;;5135407;27;20699;-79
2021/04/05 06:44:55;;;;;;;10.77;3.47;;;3.20;99.90;;;;;;5138028;27;20031;-76
2021/04/05 06:47:32;;;;;;;8.93;4.15;;;2.80;99.90;;;;;;5144872;27;20039;-76
2021/04/05 06:50:38;;;;;;;8.95;2.40;;;2.90;99.90;;;;;;5109779;27;20027;-75
2021/04/05 06:53:38;;;;;;;9.00;2.55;;;2.50;99.90;;;;;;5140550;27;20119;-76
2021/04/05 06:56:14;;;;;;;4.90;1.95;;;2.60;99.90;;;;;;5133460;27;20035;-77
2021/04/05 06:58:42;;;;;;;8.68;2.15;;;2.60;99.90;;;;;;5113551;27;20133;-77
2021/04/05 07:01:24;;;;;;;4.15;2.03;;;2.60;99.90;;;;;;5140952;27;20090;-76
2021/04/05 07:04:28;;;;;;;7.75;2.38;;;2.70;99.90;;;;;;5118046;27;20048;-75
2021/04/05 07:07:25;;;;;;;4.80;2.05;;;2.70;99.90;;;;;;5127090;27;20090;-75
2021/04/05 07:10:26;;;;;;;5.20;2.40;;;2.90;99.90;;;;;;5117701;27;20066;-77
2021/04/05 07:13:02;;;;;;;5.05;1.90;;;3.00;99.90;;;;;;5118899;27;20043;-76
2021/04/05 07:15:52;;;;;;;2.72;1.70;;;3.20;99.90;;;;;;5134976;27;20038;-73
2021/04/05 07:18:42;;;;;;;7.82;2.10;;;3.30;99.90;;;;;;5131465;27;20106;-76
2021/04/05 07:21:28;;;;;;;6.97;2.30;;;3.40;99.90;;;;;;5142281;27;20039;-78
2021/04/05 07:24:11;;;;;;;7.15;2.83;;;3.40;99.90;;;;;;5114843;27;20118;-76
2021/04/05 07:26:59;;;;;;;9.02;2.35;;;3.10;99.90;;;;;;5143579;27;20055;-76
2021/04/05 07:30:02;;;;;;;6.15;2.05;;;3.00;99.90;;;;;;5133173;27;20035;-77
2021/04/05 07:32:55;;;;;;;9.60;2.30;;;2.30;99.90;;;;;;5080688;28;20092;-77
2021/04/05 07:35:29;;;;;;;6.22;2.50;;;2.00;99.90;;;;;;5089966;28;20118;-77
2021/04/05 07:38:36;;;;;;;8.27;3.03;;;1.90;99.90;;;;;;5092018;28;20039;-76
2021/04/05 07:41:50;;;;;;;8.02;2.35;;;1.60;99.90;;;;;;5028945;28;20422;-78
2021/04/05 07:44:37;;;;;;;7.20;2.70;;;1.00;99.90;;;;;;5016462;28;20049;-77
2021/04/05 07:47:45;;;;;;;10.35;2.88;;;0.60;99.90;;;;;;5078823;28;20123;-76
2021/04/05 07:50:35;;;;;;;8.02;2.97;;;0.50;99.90;;;;;;5071375;28;20037;-77
2021/04/05 07:53:21;;;;;;;9.35;2.88;;;0.40;99.90;;;;;;5105771;28;20032;-80
2021/04/05 07:55:48;;;;;;;6.27;2.97;;;0.50;99.90;;;;;;5099069;28;20473;-76
2021/04/05 07:58:45;;;;;;;9.13;2.75;;;0.60;99.90;;;;;;5096514;28;20046;-75
2021/04/05 08:01:37;;;;;;;14.75;3.70;;;1.00;99.90;;;;;;5108655;28;20502;-78
2021/04/05 08:04:27;;;;;;;11.10;3.35;;;1.00;99.90;;;;;;5077139;28;20058;-76
2021/04/05 08:07:01;;;;;;;11.45;3.03;;;1.00;99.90;;;;;;5091300;28;20040;-75
2021/04/05 08:09:39;;;;;;;6.43;2.78;;;1.10;99.90;;;;;;5088129;28;20043;-76
2021/04/05 08:12:21;;;;;;;8.63;3.20;;;1.10;99.90;;;;;;5092358;28;20040;-75
2021/04/05 08:15:20;;;;;;;10.77;4.13;;;1.10;99.90;;;;;;5085054;28;20492;-76
2021/04/05 08:18:07;;;;;;;8.43;3.47;;;1.20;99.90;;;;;;5088948;28;20035;-79
2021/04/05 08:20:56;;;;;;;;;;;1.20;99.90;;;;;;5105026;28;20139;-76
2021/04/05 08:23:39;;;;;;;16.55;3.97;;;1.20;99.90;;;;;;5065060;28;20010;-78
2021/04/05 08:26:30;;;;;;;15.20;4.45;;;1.30;99.90;;;;;;5102029;28;20170;-76
2021/04/05 08:29:21;;;;;;;10.10;4.20;;;1.30;99.90;;;;;;5093797;28;20485;-77
2021/04/05 08:32:01;;;;;;;15.50;3.80;;;1.50;99.90;;;;;;5135862;27;20125;-77
2021/04/05 08:34:55;;;;;;;10.80;4.90;;;1.90;99.90;;;;;;5148152;27;20038;-77
2021/04/05 08:37:50;;;;;;;9.30;2.75;;;2.30;99.90;;;;;;5138348;27;20031;-80
2021/04/05 08:40:44;;;;;;;8.60;3.50;;;2.50;98.70;;;;;;5117051;27;20436;-79
2021/04/05 08:43:42;;;;;;;10.43;3.65;;;2.60;95.60;;;;;;5132347;27;20062;-80
2021/04/05 08:46:14;;;;;;;12.48;3.97;;;2.50;97.50;;;;;;5142823;27;20054;-78
2021/04/05 08:48:43;;;;;;;11.63;4.15;;;2.10;99.90;;;;;;5129844;27;20031;-78
2021/04/05 08:51:17;;;;;;;10.30;3.95;;;1.80;99.90;;;;;;5136273;27;20483;-78
2021/04/05 08:53:49;;;;;;;6.15;3.00;;;1.70;99.90;;;;;;5146879;27;20031;-79
2021/04/05 08:56:17;;;;;;;6.60;2.92;;;1.80;99.90;;;;;;5111671;27;20386;-78
2021/04/05 08:59:08;;;;;;;7.93;3.05;;;1.80;99.90;;;;;;5137065;27;20103;-79
2021/04/05 09:01:48;;;;;;;10.23;3.92;;;1.90;99.00;;;;;;5129966;27;20068;-78
2021/04/05 09:04:19;;;;;;;6.35;2.55;;;2.20;98.20;;;;;;5128638;27;20035;-77
2021/04/05 09:07:01;;;;;;;13.10;3.50;;;1.80;95.60;;;;;;5128534;27;20035;-76
2021/04/05 09:09:30;;;;;;;7.63;2.50;;;1.70;95.80;;;;;;5113278;27;20054;-80
2021/04/05 09:11:56;;;;;;;9.75;2.60;;;1.70;95.70;;;;;;5114618;27;20121;-77
2021/04/05 09:14:25;;;;;;;6.50;2.90;;;2.00;94.70;;;;;;5119335;27;20115;-80
2021/04/05 09:17:06;;;;;;;4.97;2.55;;;2.10;93.80;;;;;;5130482;27;20421;-77
2021/04/05 09:19:50;;;;;;;4.78;2.30;;;2.60;92.20;;;;;;5110934;27;20036;-80
2021/04/05 09:22:40;;;;;;;6.43;3.03;;;2.80;91.10;;;;;;5115893;27;20043;-80
2021/04/05 09:25:40;;;;;;;4.65;2.22;;;2.70;91.20;;;;;;5115500;27;20031;-78
2021/04/05 09:28:06;;;;;;;4.82;2.15;;;2.60;91.10;;;;;;5115840;27;20097;-79
2021/04/05 09:30:50;;;;;;;9.63;2.70;;;2.80;81.20;;;;;;5132108;27;20051;-79
2021/04/05 09:33:57;;;;;;;4.13;2.00;;;3.10;75.80;;;;;;5128691;27;20125;-81
2021/04/05 09:36:47;;;;;;;7.30;2.47;;;3.20;70.10;;;;;;5111456;28;20115;-82
2021/04/05 09:39:48;;;;;;;4.22;1.92;;;3.40;73.50;;;;;;5126833;27;20035;-78
2021/04/05 09:42:50;;;;;;;6.57;1.95;;;3.50;68.50;;;;;;5130992;27;20401;-79
2021/04/05 09:45:41;;;;;;;6.20;2.92;;;3.70;68.70;;;;;;5112241;28;20114;-81
2021/04/05 09:48:32;;;;;;;4.82;2.08;;;3.80;69.70;;;;;;5120517;27;20138;-80
2021/04/05 09:51:27;;;;;;;5.32;1.90;;;4.00;69.30;;;;;;5131222;27;20429;-78
2021/04/05 09:54:17;;;;;;;5.97;2.10;;;4.10;69.60;;;;;;5107149;28;20382;-80
2021/04/05 09:56:48;;;;;;;7.15;2.10;;;3.80;68.20;;;;;;5124421;28;20076;-79
2021/04/05 09:59:18;;;;;;;7.50;2.30;;;3.70;70.10;;;;;;5139086;27;20035;-81
2021/04/05 10:01:51;;;;;;;6.18;2.25;;;3.90;70.30;;;;;;5114530;28;20462;-80
2021/04/05 10:04:25;;;;;;;3.97;1.80;;;4.10;67.60;;;;;;5120820;28;20068;-79
2021/04/05 10:06:53;;;;;;;6.13;2.58;;;4.10;68.70;;;;;;5106666;28;20156;-78
2021/04/05 10:09:30;;;;;;;8.00;2.35;;;4.70;66.90;;;;;;5121108;27;20095;-79
2021/04/05 10:12:01;;;;;;;8.43;2.95;;;4.00;71.90;;;;;;5130617;27;20767;-81
2021/04/05 10:14:39;;;;;;;6.57;2.15;;;3.60;81.20;;;;;;5114718;28;20073;-78
2021/04/05 10:17:05;;;;;;;7.90;2.65;;;3.40;87.60;;;;;;5118601;28;20035;-81
2021/04/05 10:19:36;;;;;;;4.32;2.15;;;3.50;86.30;;;;;;5108274;28;20043;-79
2021/04/05 10:22:14;;;;;;;4.25;1.95;;;3.80;79.50;;;;;;5132995;28;20088;-80
2021/04/05 10:24:43;;;;;;;4.70;1.70;;;4.20;68.50;;;;;;5112770;28;20484;-79
2021/04/05 10:27:15;;;;;;;3.58;1.70;;;4.50;68.30;;;;;;5118533;28;20031;-78
2021/04/05 10:29:44;;;;;;;4.82;1.83;;;4.40;64.70;;;;;;5101964;27;20027;-79
2021/04/05 10:32:15;;;;;;;4.60;1.75;;;4.20;64.80;;;;;;5057402;27;1626134;-80
2021/04/05 10:34:45;;;;;;;3.55;1.90;;;3.80;70.70;;;;;;5106873;27;20498;-79
2021/04/05 10:37:16;;;;;;;4.90;1.83;;;3.40;83.30;;;;;;5141795;27;20087;-77
2021/04/05 10:39:50;;;;;;;6.78;2.40;;;3.10;90.60;;;;;;5130390;27;20106;-80
2021/04/05 10:42:27;;;;;;;7.88;2.28;;;2.60;91.50;;;;;;5099483;27;20098;-80
2021/04/05 10:44:58;;;;;;;6.72;2.35;;;2.60;93.50;;;;;;5099558;27;20472;-80
2021/04/05 10:47:31;;;;;;;6.93;2.60;;;3.00;93.80;;;;;;5126245;27;20087;-78
2021/04/05 10:49:59;;;;;;;5.95;2.63;;;3.30;94.10;;;;;;5124043;27;20175;-79
2021/04/05 10:52:28;;;;;;;5.05;2.28;;;3.70;92.40;;;;;;5136421;27;20341;-80
2021/04/05 10:54:57;;;;;;;4.05;1.63;;;3.60;93.50;;;;;;5097743;27;20078;-81
2021/04/05 10:57:33;;;;;;;5.20;2.50;;;3.00;96.80;;;;;;5112243;27;20027;-79
2021/04/05 11:00:09;;;;;;;7.18;3.83;;;2.20;98.50;;;;;;5119936;27;20126;-80
2021/04/05 11:02:46;;;;;;;4.45;2.50;;;1.60;98.20;;;;;;5137285;27;20413;-81
2021/04/05 11:05:22;;;;;;;10.90;2.72;;;1.30;98.40;;;;;;5123046;27;20512;-82
2021/04/05 11:08:01;;;;;;;9.32;2.90;;;1.30;98.40;;;;;;5123006;27;20057;-81
2021/04/05 11:10:29;;;;;;;10.70;2.75;;;1.50;98.60;;;;;;5104850;27;20110;-79
2021/04/05 11:13:06;;;;;;;5.47;2.83;;;2.10;97.50;;;;;;5112133;27;20076;-79
2021/04/05 11:15:35;;;;;;;7.82;2.90;;;2.70;96.90;;;;;;5117537;27;20027;-82
2021/04/05 11:18:06;;;;;;;10.23;2.78;;;3.00;94.30;;;;;;5097967;27;20480;-81
2021/04/05 11:20:35;;;;;;;7.90;2.20;;;3.10;93.40;;;;;;5114154;27;20459;-80
2021/04/05 11:23:22;;;;;;;6.88;2.58;;;3.20;92.90;;;;;;5130749;27;20126;-80
2021/04/05 11:25:59;;;;;;;7.00;2.50;;;3.50;93.90;;;;;;5110429;27;20039;-81
2021/04/05 11:28:27;;;;;;;4.85;2.65;;;3.90;93.30;;;;;;5124070;27;20045;-79
2021/04/05 11:31:19;;;;;;;5.75;2.22;;;4.20;92.70;;;;;;5127745;27;20048;-79
2021/04/05 11:33:57;;;;;;;10.40;2.90;;;4.20;86.70;;;;;;5129271;27;20058;-80
2021/04/05 11:36:30;;;;;;;9.18;2.22;;;3.90;81.00;;;;;;5140335;27;20057;-78
2021/04/05 11:38:58;;;;;;;7.38;2.58;;;3.90;77.00;;;;;;5132286;27;20053;-80
2021/04/05 11:41:29;;;;;;;10.82;2.92;;;3.90;81.60;;;;;;5113492;27;20051;-77
2021/04/05 11:43:59;;;;;;;9.40;3.17;;;4.20;84.10;;;;;;5132309;27;20371;-77
2021/04/05 11:46:37;;;;;;;7.65;3.10;;;4.50;84.30;;;;;;5126096;27;20178;-77
2021/04/05 11:49:14;;;;;;;8.30;2.45;;;4.60;86.30;;;;;;5123930;27;20046;-75
2021/04/05 11:52:10;;;;;;;7.72;2.63;;;4.50;82.80;;;;;;5102031;28;20138;-79
2021/04/05 11:54:52;;;;;;;5.50;2.30;;;4.20;89.60;;;;;;5111828;27;20176;-79
2021/04/05 11:57:39;;;;;;;4.85;1.75;;;4.00;90.20;;;;;;5122864;27;20035;-81
2021/04/05 12:00:08;;;;;;;5.43;2.05;;;3.80;90.10;;;;;;5107701;27;20060;-81
2021/04/05 12:02:40;;;;;;;7.28;2.25;;;3.50;89.70;;;;;;5088567;28;20047;-80
2021/04/05 12:05:25;;;;;;;4.93;1.80;;;3.30;88.50;;;;;;5109770;27;20042;-80
2021/04/05 12:08:11;;;;;;;5.50;1.50;;;3.00;90.20;;;;;;5105693;28;20111;-79
2021/04/05 12:10:39;;;;;;;4.50;2.00;;;2.70;90.20;;;;;;5125852;28;20023;-79
2021/04/05 12:13:05;;;;;;;6.60;1.70;;;2.50;90.90;;;;;;5121947;27;20047;-78
2021/04/05 12:15:35;;;;;;;5.50;1.98;;;2.30;92.30;;;;;;5106214;28;20039;-81
2021/04/05 12:18:02;;;;;;;3.05;1.65;;;2.10;91.40;;;;;;5107892;28;20161;-81
2021/04/05 12:20:31;;;;;;;3.22;1.33;;;2.10;90.20;;;;;;5104445;28;20031;-81
2021/04/05 12:22:59;;;;;;;5.82;1.70;;;2.60;84.80;;;;;;5124458;28;20055;-78
2021/04/05 12:25:36;;;;;;;5.75;2.53;;;2.60;83.90;;;;;;5110135;28;20507;-75
2021/04/05 12:28:05;;;;;;;9.13;2.75;;;2.70;91.20;;;;;;5122172;28;20035;-79
2021/04/05 12:30:34;;;;;;;9.38;2.78;;;2.80;93.60;;;;;;5103811;28;20043;-81
2021/04/05 12:33:02;;;;;;;5.55;3.03;;;2.60;94.90;;;;;;5088452;28;20043;-79
2021/04/05 12:35:32;;;;;;;5.63;3.10;;;3.10;96.80;;;;;;5128246;28;20353;-83
2021/04/05 12:38:06;;;;;;;5.90;2.78;;;2.40;97.80;;;;;;5129685;27;20036;-80
2021/04/05 12:40:35;;;;;;;7.15;2.83;;;2.40;97.30;;;;;;5103819;28;20114;-78
2021/04/05 12:43:12;;;;;;;8.73;3.30;;;2.40;97.50;;;;;;5109672;27;20035;-78
2021/04/05 12:45:47;;;;;;;10.48;3.42;;;2.50;97.20;;;;;;5104655;28;20378;-80
2021/04/05 12:48:14;;;;;;;8.57;2.80;;;2.60;96.70;;;;;;5130207;27;20042;-83
2021/04/05 12:50:41;;;;;;;8.20;2.67;;;;;;;;;;5098396;28;20047;-82
2021/04/05 12:53:09;;;;;;;6.78;3.03;;;2.80;95.50;;;;;;5092855;28;20047;-82
2021/04/05 12:55:43;;;;;;;9.80;2.05;;;2.80;94.40;;;;;;5099563;28;20044;-79
2021/04/05 12:58:09;;;;;;;8.52;3.00;;;2.60;95.20;;;;;;5117371;28;20096;-78
2021/04/05 13:00:43;;;;;;;8.30;4.30;;;2.20;96.00;;;;;;5090922;28;20046;-77
2021/04/05 13:03:20;;;;;;;3.17;2.08;;;1.90;96.60;;;;;;5127866;27;20032;-77
2021/04/05 13:05:54;;;;;;;3.88;2.17;;;1.80;96.80;;;;;;5145906;27;20035;-80
2021/04/05 13:08:57;;;;;;;4.90;2.58;;;3.00;97.50;;;;;;5130069;27;20092;-78
2021/04/05 13:11:42;;;;;;;4.68;2.30;;;1.90;98.10;;;;;;5113267;27;20067;-80
2021/04/05 13:14:49;;;;;;;7.57;2.42;;;1.90;99.30;;;;;;5109465;27;20042;-79
2021/04/05 13:17:30;;;;;;;8.43;3.63;;;1.70;99.90;;;;;;5117872;27;20043;-78
2021/04/05 13:20:02;;;;;;;6.25;3.38;;;1.90;99.90;;;;;;5113741;27;20066;-78
2021/04/05 13:22:33;;;;;;;11.45;3.30;;;1.80;99.90;;;;;;5136385;27;20039;-78
2021/04/05 13:25:03;;;;;;;6.40;3.80;;;2.20;99.90;;;;;;5126441;27;20058;-78
2021/04/05 13:27:30;;;;;;;8.02;3.10;;;2.40;99.90;;;;;;5131066;27;20039;-78
2021/04/05 13:29:58;;;;;;;9.98;3.20;;;2.70;98.40;;;;;;5141443;27;20034;-79
2021/04/05 13:32:31;;;;;;;7.55;2.38;;;3.90;98.90;;;;;;5106957;27;20134;-82
2021/04/05 13:35:04;;;;;;;9.18;3.22;;;2.40;99.50;;;;;;5139838;27;20189;-80
2021/04/05 13:37:32;;;;;;;9.68;3.20;;;2.20;99.90;;;;;;5107664;27;20054;-81
2021/04/05 13:40:03;;;;;;;7.20;3.35;;;2.00;99.90;;;;;;5114936;27;20035;-76
2021/04/05 13:42:30;;;;;;;5.78;2.60;;;3.50;99.90;;;;;;5118771;27;20118;-76